Time;durP1;ratioP1;P1;durP2;ratioP2;P2;SDS_P1;SDS_P2;PMS_P1;PMS_P2;Temp;Humidity;BMP_temperature;BMP_pressure;BME280_temperature;BME280_humidity;BME280_pressure;Samples;Min_cycle;Max_cycle;Signal;HPM_P1;HPM_P2
2021/07/15 00:01:19;;;;;;;13.27;11.32;;;;;;;;;;5043130;28;20060;-73
2021/07/15 00:03:45;;;;;;;11.88;10.68;;;;;;;;;;5053762;28;20047;-73
2021/07/15 00:06:12;;;;;;;12.52;11.30;;;;;;;;;;5061871;28;20141;-73
2021/07/15 00:08:38;;;;;;;12.07;10.88;;;;;;;;;;5057093;28;20483;-72
2021/07/15 00:11:10;;;;;;;11.93;10.85;;;;;;;;;;5065642;28;20075;-74
2021/07/15 00:13:36;;;;;;;12.45;11.15;;;;;;;;;;5047255;28;20060;-73
2021/07/15 00:16:05;;;;;;;12.27;10.80;;;;;;;;;;5041151;28;20060;-72
2021/07/15 00:18:32;;;;;;;11.40;10.25;;;;;;;;;;5056707;28;20324;-72
2021/07/15 00:21:00;;;;;;;11.98;10.77;;;;;;;;;;5063309;28;20577;-72
2021/07/15 00:23:27;;;;;;;12.32;11.07;;;;;;;;;;5037367;28;20138;-72
2021/07/15 00:25:53;;;;;;;11.88;10.77;;;;;;;;;;5062425;28;20067;-72
2021/07/15 00:28:20;;;;;;;12.70;11.40;;;;;;;;;;5061253;28;20060;-72
2021/07/15 00:30:46;;;;;;;11.82;10.73;;;;;;;;;;5040309;28;20064;-72
2021/07/15 00:33:13;;;;;;;11.40;10.27;;;;;;;;;;5053141;28;20068;-73
2021/07/15 00:35:39;;;;;;;11.70;10.50;;;;;;;;;;5062489;28;20106;-72
2021/07/15 00:38:06;;;;;;;11.85;10.75;;;;;;;;;;5050907;28;20071;-74
2021/07/15 00:40:33;;;;;;;11.10;10.10;;;;;;;;;;5058257;28;20425;-73
2021/07/15 00:42:59;;;;;;;12.57;11.38;;;;;;;;;;5058585;28;20061;-73
2021/07/15 00:45:26;;;;;;;12.15;10.95;;;;;;;;;;5060774;28;20113;-72
2021/07/15 00:47:52;;;;;;;11.63;10.48;;;;;;;;;;5059437;28;20072;-73
2021/07/15 00:50:20;;;;;;;12.88;11.57;;;;;;;;;;5059173;28;20514;-72
2021/07/15 00:52:47;;;;;;;12.48;11.20;;;;;;;;;;5061198;28;20063;-72
2021/07/15 00:55:33;;;;;;;11.73;10.57;;;;;;;;;;5039829;28;20068;-73
2021/07/15 00:58:00;;;;;;;11.55;10.45;;;;;;;;;;5060263;28;20063;-73
2021/07/15 01:00:27;;;;;;;12.27;11.13;;;;;;;;;;5048968;28;20060;-73
2021/07/15 01:02:54;;;;;;;12.35;10.93;;;;;;;;;;5051546;28;20520;-73
2021/07/15 01:05:24;;;;;;;13.63;12.32;;;;;;;;;;5050649;28;20083;-73
2021/07/15 01:07:50;;;;;;;12.70;11.50;;;;;;;;;;5031818;28;20061;-73
2021/07/15 01:10:19;;;;;;;13.38;12.05;;;;;;;;;;5056667;28;20041;-73
2021/07/15 01:12:57;;;;;;;11.95;10.85;;;;;;;;;;5053988;28;20064;-73
2021/07/15 01:15:25;;;;;;;12.27;11.02;;;;;;;;;;5054680;28;20075;-74
2021/07/15 01:18:01;;;;;;;13.88;11.70;;;;;;;;;;5051324;28;20060;-74
2021/07/15 01:20:27;;;;;;;13.20;11.80;;;;;;;;;;5056901;28;20044;-73
2021/07/15 01:23:13;;;;;;;13.65;12.25;;;;;;;;;;5052191;28;20068;-73
2021/07/15 01:26:00;;;;;;;16.10;12.63;;;;;;;;;;5048305;28;21206;-73
2021/07/15 01:28:45;;;;;;;13.38;12.02;;;;;;;;;;4996619;28;20124;-73
2021/07/15 01:31:12;;;;;;;14.07;12.68;;;;;;;;;;5011132;28;20069;-74
2021/07/15 01:33:39;;;;;;;14.10;12.70;;;;;;;;;;5020273;28;20057;-71
2021/07/15 01:36:07;;;;;;;13.55;12.25;;;;;;;;;;5015646;28;20053;-73
2021/07/15 01:39:03;;;;;;;13.73;12.43;;;;;;;;;;5014820;28;20886;-72
2021/07/15 01:41:32;;;;;;;13.20;11.98;;;;;;;;;;5007833;28;21090;-72
2021/07/15 01:44:01;;;;;;;15.38;13.15;;;;;;;;;;5018389;28;20068;-72
2021/07/15 01:46:28;;;;;;;13.68;12.27;;;;;;;;;;5014460;28;20049;-72
2021/07/15 01:48:54;;;;;;;13.95;12.52;;;;;;;;;;5010748;28;20607;-73
2021/07/15 01:51:21;;;;;;;13.52;12.20;;;;;;;;;;5018135;28;20125;-72
2021/07/15 01:53:49;;;;;;;13.43;12.13;;;;;;;;;;5021190;28;20527;-71
2021/07/15 01:56:16;;;;;;;14.00;12.60;;;;;;;;;;5016523;28;20052;-72
2021/07/15 01:58:44;;;;;;;13.73;12.32;;;;;;;;;;5014870;28;20071;-72
2021/07/15 02:01:12;;;;;;;13.82;12.50;;;;;;;;;;5011507;28;20065;-72
2021/07/15 02:03:58;;;;;;;14.93;13.13;;;;;;;;;;5018776;28;20065;-72
2021/07/15 02:06:25;;;;;;;13.55;12.20;;;;;;;;;;5020339;28;20057;-72
2021/07/15 02:08:53;;;;;;;14.23;12.15;;;;;;;;;;5011454;28;20128;-72
2021/07/15 02:11:21;;;;;;;13.50;12.10;;;;;;;;;;5010966;28;20057;-70
2021/07/15 02:13:48;;;;;;;14.90;13.18;;;;;;;;;;5018718;28;20072;-70
2021/07/15 02:16:14;;;;;;;14.88;13.30;;;;;;;;;;5021965;28;20493;-71
2021/07/15 02:18:42;;;;;;;14.48;13.07;;;;;;;;;;5015152;28;20142;-71
2021/07/15 02:21:08;;;;;;;14.05;12.55;;;;;;;;;;5006728;28;20123;-71
2021/07/15 02:23:35;;;;;;;16.33;12.75;;;;;;;;;;5026859;28;20565;-71
2021/07/15 02:26:02;;;;;;;14.10;12.70;;;;;;;;;;5012092;28;20065;-70
2021/07/15 02:28:29;;;;;;;14.02;12.63;;;;;;;;;;5055406;28;20078;-71
2021/07/15 02:31:09;;;;;;;14.02;12.63;;;;;;;;;;5059587;28;20060;-71
2021/07/15 02:33:37;;;;;;;14.13;12.65;;;;;;;;;;5062440;28;20121;-74
2021/07/15 02:36:04;;;;;;;14.52;12.25;;;;;;;;;;5048180;28;20067;-71
2021/07/15 02:38:31;;;;;;;14.45;12.43;;;;;;;;;;5059221;28;20105;-71
2021/07/15 02:40:58;;;;;;;14.00;12.60;;;;;;;;;;5061739;28;20063;-71
2021/07/15 02:43:24;;;;;;;13.10;11.80;;;;;;;;;;5055531;28;20080;-72
2021/07/15 02:45:52;;;;;;;12.90;11.70;;;;;;;;;;5052617;28;20064;-70
2021/07/15 02:48:19;;;;;;;13.38;12.07;;;;;;;;;;5057735;28;20037;-71
2021/07/15 02:50:46;;;;;;;13.43;12.02;;;;;;;;;;5059905;28;20133;-71
2021/07/15 02:53:12;;;;;;;13.68;12.27;;;;;;;;;;5060752;28;20072;-71
2021/07/15 02:55:42;;;;;;;14.02;11.95;;;;;;;;;;5054371;28;20068;-71
2021/07/15 02:58:12;;;;;;;12.90;11.50;;;;;;;;;;5055092;28;20056;-71
2021/07/15 03:00:59;;;;;;;15.32;12.02;;;;;;;;;;5053831;28;20162;-70
2021/07/15 03:03:44;;;;;;;12.45;11.15;;;;;;;;;;5053112;28;20079;-71
2021/07/15 03:06:14;;;;;;;13.80;12.40;;;;;;;;;;5049007;28;20071;-71
2021/07/15 03:08:50;;;;;;;14.48;13.05;;;;;;;;;;5052534;28;20190;-71
2021/07/15 03:11:19;;;;;;;13.18;11.70;;;;;;;;;;5054340;28;20078;-71
2021/07/15 03:13:46;;;;;;;13.73;12.43;;;;;;;;;;5051724;28;20648;-71
2021/07/15 03:16:16;;;;;;;13.98;12.65;;;;;;;;;;5052495;28;20125;-71
2021/07/15 03:18:44;;;;;;;13.60;12.20;;;;;;;;;;5053757;28;20064;-71
2021/07/15 03:21:11;;;;;;;13.45;12.13;;;;;;;;;;5057130;28;20493;-71
2021/07/15 03:23:38;;;;;;;12.85;11.27;;;;;;;;;;5062206;28;20068;-70
2021/07/15 03:26:06;;;;;;;16.08;12.35;;;;;;;;;;5045845;28;20514;-71
2021/07/15 03:28:35;;;;;;;12.65;11.43;;;;;;;;;;5049406;28;20061;-71
2021/07/15 03:31:06;;;;;;;13.80;12.50;;;;;;;;;;5053281;28;20567;-71
2021/07/15 03:33:33;;;;;;;12.80;11.57;;;;;;;;;;5060869;28;20060;-71
2021/07/15 03:35:59;;;;;;;14.07;12.57;;;;;;;;;;5062413;28;20060;-72
2021/07/15 03:38:26;;;;;;;12.40;11.20;;;;;;;;;;5044955;28;20061;-72
2021/07/15 03:40:53;;;;;;;13.15;11.85;;;;;;;;;;5059277;28;20121;-71
2021/07/15 03:43:19;;;;;;;13.18;11.77;;;;;;;;;;5049805;28;20213;-72
2021/07/15 03:45:50;;;;;;;13.60;12.20;;;;;;;;;;5056719;28;20064;-71
2021/07/15 03:48:17;;;;;;;13.52;11.65;;;;;;;;;;5054627;28;20498;-71
2021/07/15 03:50:45;;;;;;;13.85;12.40;;;;;;;;;;5060579;28;20064;-72
2021/07/15 03:53:12;;;;;;;14.07;12.68;;;;;;;;;;5053808;28;20102;-72
2021/07/15 03:55:40;;;;;;;13.48;11.63;;;;;;;;;;5056346;28;20079;-72
2021/07/15 03:58:12;;;;;;;13.07;11.82;;;;;;;;;;5060594;28;20060;-72
2021/07/15 04:00:41;;;;;;;14.38;11.88;;;;;;;;;;5043143;28;20063;-71
2021/07/15 04:03:09;;;;;;;13.02;11.73;;;;;;;;;;5052482;28;20056;-72
2021/07/15 04:05:37;;;;;;;13.05;11.38;;;;;;;;;;5050854;28;20068;-71
2021/07/15 04:08:04;;;;;;;12.80;11.60;;;;;;;;;;5062271;28;20040;-71
2021/07/15 04:10:31;;;;;;;12.00;10.80;;;;;;;;;;5056376;28;20060;-71
2021/07/15 04:12:58;;;;;;;13.23;11.88;;;;;;;;;;5060453;28;20060;-71
2021/07/15 04:15:44;;;;;;;12.70;11.40;;;;;;;;;;5048656;28;20043;-71
2021/07/15 04:18:11;;;;;;;13.05;11.70;;;;;;;;;;5056842;28;20072;-72
2021/07/15 04:20:40;;;;;;;13.35;12.05;;;;;;;;;;5053977;28;20067;-71
2021/07/15 04:23:07;;;;;;;13.32;10.90;;;;;;;;;;5045773;28;20056;-71
2021/07/15 04:25:34;;;;;;;13.23;11.93;;;;;;;;;;5048105;28;23103;-70
2021/07/15 04:28:02;;;;;;;12.82;11.52;;;;;;;;;;5052395;28;20072;-70
2021/07/15 04:30:30;;;;;;;12.30;10.90;;;;;;;;;;5057719;28;20059;-70
2021/07/15 04:33:00;;;;;;;13.85;11.85;;;;;;;;;;5053229;28;20056;-71
2021/07/15 04:35:28;;;;;;;11.35;10.32;;;;;;;;;;5051538;28;20053;-71
2021/07/15 04:37:55;;;;;;;15.25;12.35;;;;;;;;;;5061398;28;20056;-71
2021/07/15 04:40:23;;;;;;;12.07;10.77;;;;;;;;;;5056108;28;20071;-71
2021/07/15 04:42:51;;;;;;;12.98;11.68;;;;;;;;;;5050741;28;20711;-70
2021/07/15 04:45:17;;;;;;;13.02;11.70;;;;;;;;;;5062718;28;20565;-71
2021/07/15 04:47:46;;;;;;;13.18;11.77;;;;;;;;;;5051490;28;20083;-71
2021/07/15 04:50:17;;;;;;;13.13;11.75;;;;;;;;;;5059514;28;20400;-71
2021/07/15 04:52:44;;;;;;;13.27;11.88;;;;;;;;;;5057014;28;20111;-70
2021/07/15 04:55:12;;;;;;;14.90;11.35;;;;;;;;;;5049853;28;20102;-71
2021/07/15 04:57:39;;;;;;;13.13;11.82;;;;;;;;;;5057613;28;20106;-71
2021/07/15 05:00:07;;;;;;;13.35;11.95;;;;;;;;;;5060343;28;20379;-71
2021/07/15 05:02:33;;;;;;;15.70;11.15;;;;;;;;;;5064313;28;22121;-71
2021/07/15 05:05:01;;;;;;;12.48;11.15;;;;;;;;;;5040391;28;20083;-71
2021/07/15 05:07:27;;;;;;;12.82;11.43;;;;;;;;;;5058119;28;20059;-70
2021/07/15 05:09:54;;;;;;;12.55;11.20;;;;;;;;;;5033213;28;20028;-71
2021/07/15 05:12:20;;;;;;;12.85;11.55;;;;;;;;;;5051270;28;20063;-70
2021/07/15 05:14:47;;;;;;;12.88;11.57;;;;;;;;;;5054648;28;20072;-71
2021/07/15 05:17:13;;;;;;;13.20;11.90;;;;;;;;;;5053564;28;20048;-72
2021/07/15 05:19:39;;;;;;;13.77;12.48;;;;;;;;;;5057295;28;20056;-71
2021/07/15 05:22:06;;;;;;;12.40;11.20;;;;;;;;;;5058279;28;20075;-73
2021/07/15 05:24:32;;;;;;;12.75;11.45;;;;;;;;;;5053512;28;21452;-71
2021/07/15 05:27:00;;;;;;;13.38;12.02;;;;;;;;;;5060674;28;20496;-71
2021/07/15 05:29:26;;;;;;;13.40;11.90;;;;;;;;;;5051370;28;20673;-71
2021/07/15 05:31:54;;;;;;;14.38;11.57;;;;;;;;;;5054423;28;20057;-71
2021/07/15 05:34:20;;;;;;;13.82;11.75;;;;;;;;;;5057741;28;20029;-71
2021/07/15 05:36:47;;;;;;;13.65;12.25;;;;;;;;;;5064884;28;20070;-71
2021/07/15 05:39:13;;;;;;;13.05;11.75;;;;;;;;;;5058284;28;20088;-71
2021/07/15 05:41:40;;;;;;;14.38;12.50;;;;;;;;;;5050699;28;20692;-70
2021/07/15 05:44:06;;;;;;;12.82;11.55;;;;;;;;;;5055694;28;20081;-71
2021/07/15 05:46:33;;;;;;;14.10;11.77;;;;;;;;;;5053900;28;20052;-71
2021/07/15 05:48:59;;;;;;;13.90;12.35;;;;;;;;;;5052579;28;20068;-70
2021/07/15 05:51:25;;;;;;;14.00;11.75;;;;;;;;;;5060589;28;20060;-70
2021/07/15 05:53:52;;;;;;;13.70;12.20;;;;;;;;;;5058673;28;20067;-71
2021/07/15 05:56:18;;;;;;;16.50;13.15;;;;;;;;;;5049379;28;20099;-71
2021/07/15 05:58:45;;;;;;;12.85;11.55;;;;;;;;;;5058638;28;20052;-71
2021/07/15 06:01:11;;;;;;;13.45;12.05;;;;;;;;;;5052102;28;20060;-71
2021/07/15 06:03:37;;;;;;;15.15;12.82;;;;;;;;;;5050973;28;20068;-71
2021/07/15 06:06:04;;;;;;;15.75;12.93;;;;;;;;;;5049551;28;20490;-71
2021/07/15 06:08:31;;;;;;;15.40;12.90;;;;;;;;;;5056022;28;20086;-71
2021/07/15 06:10:57;;;;;;;16.08;12.88;;;;;;;;;;5056253;28;20064;-71
2021/07/15 06:13:24;;;;;;;17.20;13.32;;;;;;;;;;5047906;28;20065;-72
2021/07/15 06:15:50;;;;;;;18.60;13.38;;;;;;;;;;5057047;28;20112;-71
2021/07/15 06:18:16;;;;;;;14.65;12.52;;;;;;;;;;5050107;28;20657;-72
2021/07/15 06:20:43;;;;;;;14.20;12.52;;;;;;;;;;5049024;28;20065;-72
2021/07/15 06:23:09;;;;;;;13.32;12.00;;;;;;;;;;5051992;28;20052;-72
2021/07/15 06:25:35;;;;;;;15.45;13.52;;;;;;;;;;5055035;28;20114;-72
2021/07/15 06:28:02;;;;;;;14.90;12.68;;;;;;;;;;5053284;28;20073;-72
2021/07/15 06:30:28;;;;;;;15.90;13.13;;;;;;;;;;5048154;28;20052;-71
2021/07/15 06:32:55;;;;;;;17.45;13.52;;;;;;;;;;5049743;28;20033;-72
2021/07/15 06:35:23;;;;;;;16.02;13.05;;;;;;;;;;5053467;28;20064;-72
2021/07/15 06:37:51;;;;;;;13.95;12.55;;;;;;;;;;5051917;28;20066;-72
2021/07/15 06:40:18;;;;;;;15.32;12.68;;;;;;;;;;5048874;28;20063;-72
2021/07/15 06:42:44;;;;;;;14.07;12.70;;;;;;;;;;5053565;28;20056;-72
2021/07/15 06:45:11;;;;;;;14.55;12.90;;;;;;;;;;5052123;28;20149;-71
2021/07/15 06:47:37;;;;;;;14.48;12.45;;;;;;;;;;5051983;28;20072;-71
2021/07/15 06:50:08;;;;;;;15.77;13.40;;;;;;;;;;5054862;28;20061;-70
2021/07/15 06:52:35;;;;;;;13.75;12.35;;;;;;;;;;5049055;28;20060;-71
2021/07/15 06:55:02;;;;;;;15.20;12.10;;;;;;;;;;5050829;28;20519;-70
2021/07/15 06:57:33;;;;;;;14.63;12.82;;;;;;;;;;5052881;28;20568;-71
2021/07/15 07:00:00;;;;;;;14.85;12.25;;;;;;;;;;5055925;28;20068;-71
2021/07/15 07:02:26;;;;;;;12.82;10.98;;;;;;;;;;5055287;28;20086;-71
2021/07/15 07:04:54;;;;;;;13.32;11.98;;;;;;;;;;5055186;28;20572;-70
2021/07/15 07:07:20;;;;;;;13.95;12.35;;;;;;;;;;5047533;28;20036;-72
2021/07/15 07:09:47;;;;;;;14.02;12.57;;;;;;;;;;5052048;28;20107;-73
2021/07/15 07:12:13;;;;;;;12.93;11.63;;;;;;;;;;5050314;28;20644;-71
2021/07/15 07:14:39;;;;;;;13.63;11.57;;;;;;;;;;5047222;28;20071;-71
2021/07/15 07:17:06;;;;;;;13.23;11.70;;;;;;;;;;5052256;28;20824;-71
2021/07/15 07:19:32;;;;;;;14.00;12.05;;;;;;;;;;5048945;28;20039;-71
2021/07/15 07:21:58;;;;;;;12.13;10.95;;;;;;;;;;5050924;28;20092;-72
2021/07/15 07:24:25;;;;;;;13.82;12.32;;;;;;;;;;5054128;28;20072;-70
2021/07/15 07:26:51;;;;;;;13.02;11.63;;;;;;;;;;5033417;28;20094;-71
2021/07/15 07:29:18;;;;;;;14.32;12.25;;;;;;;;;;5049128;28;20445;-72
2021/07/15 07:31:44;;;;;;;12.80;11.55;;;;;;;;;;5051831;28;20068;-72
2021/07/15 07:34:10;;;;;;;13.35;11.95;;;;;;;;;;5051200;28;20534;-70
2021/07/15 07:36:37;;;;;;;15.32;12.55;;;;;;;;;;5052225;28;20079;-70
2021/07/15 07:39:04;;;;;;;13.98;12.02;;;;;;;;;;5054566;28;20036;-71
2021/07/15 07:41:31;;;;;;;13.32;12.02;;;;;;;;;;5059201;28;20044;-71
2021/07/15 07:43:58;;;;;;;15.13;13.02;;;;;;;;;;5056305;28;20521;-70
2021/07/15 07:46:25;;;;;;;13.63;12.00;;;;;;;;;;5049654;28;20125;-71
2021/07/15 07:48:52;;;;;;;14.15;12.55;;;;;;;;;;5060875;28;20045;-72
2021/07/15 07:51:18;;;;;;;13.85;12.10;;;;;;;;;;5030028;28;20048;-71
2021/07/15 07:53:45;;;;;;;14.32;12.55;;;;;;;;;;5056832;28;20065;-71
2021/07/15 07:56:12;;;;;;;14.10;12.70;;;;;;;;;;5049528;28;20073;-71
2021/07/15 07:58:38;;;;;;;14.15;12.68;;;;;;;;;;5050448;28;20568;-71
2021/07/15 08:01:05;;;;;;;15.00;12.52;;;;;;;;;;5047208;28;20753;-70
2021/07/15 08:03:31;;;;;;;13.63;12.27;;;;;;;;;;5056008;28;20097;-69
2021/07/15 08:05:57;;;;;;;14.15;12.32;;;;;;;;;;5054962;28;20069;-70
2021/07/15 08:08:26;;;;;;;13.02;11.73;;;;;;;;;;5056679;28;20087;-70
2021/07/15 08:10:52;;;;;;;14.23;12.82;;;;;;;;;;5035602;28;20049;-70
2021/07/15 08:13:19;;;;;;;13.60;11.70;;;;;;;;;;5052974;28;20065;-70
2021/07/15 08:15:45;;;;;;;16.88;12.43;;;;;;;;;;5042283;28;20052;-70
2021/07/15 08:18:12;;;;;;;13.68;11.95;;;;;;;;;;5052608;28;20064;-70
2021/07/15 08:20:38;;;;;;;13.07;11.68;;;;;;;;;;5053172;28;20060;-70
2021/07/15 08:23:05;;;;;;;13.32;11.82;;;;;;;;;;5054372;28;20061;-69
2021/07/15 08:25:32;;;;;;;14.50;11.50;;;;;;;;;;5054057;28;20061;-72
2021/07/15 08:27:59;;;;;;;12.82;11.02;;;;;;;;;;5046438;28;20064;-73
2021/07/15 08:30:25;;;;;;;11.85;10.65;;;;;;;;;;5051881;28;20067;-73
2021/07/15 08:32:51;;;;;;;12.93;11.73;;;;;;;;;;5027224;28;20087;-72
2021/07/15 08:35:18;;;;;;;13.15;11.25;;;;;;;;;;5056262;28;20071;-73
2021/07/15 08:37:44;;;;;;;12.20;11.00;;;;;;;;;;5057939;28;20041;-73
2021/07/15 08:40:11;;;;;;;12.43;11.23;;;;;;;;;;5059025;28;20122;-72
2021/07/15 08:42:38;;;;;;;13.77;11.73;;;;;;;;;;5056385;28;20133;-73
2021/07/15 08:45:07;;;;;;;12.55;11.25;;;;;;;;;;5056632;28;20036;-72
2021/07/15 08:47:40;;;;;;;12.93;11.60;;;;;;;;;;5061325;28;20052;-73
2021/07/15 08:50:07;;;;;;;13.05;11.75;;;;;;;;;;5051694;28;20121;-72
2021/07/15 08:52:37;;;;;;;13.00;11.63;;;;;;;;;;5050014;28;20777;-73
2021/07/15 08:57:34;;;;;;;13.63;11.45;;;;;;;;;;5054322;28;20097;-73
2021/07/15 09:00:01;;;;;;;12.68;11.10;;;;;;;;;;5052244;28;20064;-73
2021/07/15 09:02:27;;;;;;;12.68;11.48;;;;;;;;;;5054433;28;20065;-73
2021/07/15 09:04:55;;;;;;;12.75;11.48;;;;;;;;;;5054297;28;20106;-73
2021/07/15 09:07:24;;;;;;;12.85;10.63;;;;;;;;;;5058072;28;20101;-72
2021/07/15 09:09:50;;;;;;;16.42;11.57;;;;;;;;;;5053654;28;20063;-73
2021/07/15 09:12:17;;;;;;;12.80;11.45;;;;;;;;;;5054095;28;20063;-73
2021/07/15 09:14:47;;;;;;;13.05;10.95;;;;;;;;;;5056058;28;20562;-71
2021/07/15 09:17:14;;;;;;;12.77;11.40;;;;;;;;;;5050388;28;20084;-72
2021/07/15 09:19:41;;;;;;;12.45;10.73;;;;;;;;;;5048003;28;20063;-72
2021/07/15 09:22:13;;;;;;;12.77;11.48;;;;;;;;;;5048712;28;20422;-73
2021/07/15 09:24:44;;;;;;;12.52;11.07;;;;;;;;;;5051648;28;20064;-72
2021/07/15 09:27:15;;;;;;;12.27;10.98;;;;;;;;;;5058942;28;20688;-72
2021/07/15 09:29:43;;;;;;;11.60;10.57;;;;;;;;;;5054441;28;20117;-71
2021/07/15 09:32:09;;;;;;;12.13;10.88;;;;;;;;;;5051549;28;20643;-72
2021/07/15 09:34:37;;;;;;;12.07;10.77;;;;;;;;;;5052396;28;20079;-72
2021/07/15 09:37:10;;;;;;;12.65;11.30;;;;;;;;;;5051369;28;20063;-72
2021/07/15 09:39:43;;;;;;;15.50;12.32;;;;;;;;;;5050937;28;20482;-72
2021/07/15 09:42:14;;;;;;;14.25;12.55;;;;;;;;;;5049731;28;20055;-72
2021/07/15 09:44:43;;;;;;;14.35;12.82;;;;;;;;;;5051839;28;20079;-71
2021/07/15 09:47:28;;;;;;;14.00;12.45;;;;;;;;;;5051924;28;20072;-71
2021/07/15 09:49:55;;;;;;;15.48;13.75;;;;;;;;;;5056726;28;20048;-72
2021/07/15 09:52:22;;;;;;;15.02;13.43;;;;;;;;;;5061284;28;20110;-72
2021/07/15 09:54:49;;;;;;;16.10;14.40;;;;;;;;;;5051447;28;20106;-72
2021/07/15 09:57:28;;;;;;;16.83;15.05;;;;;;;;;;5046879;28;20072;-72
2021/07/15 09:59:58;;;;;;;18.30;14.27;;;;;;;;;;5063979;28;20063;-73
2021/07/15 10:02:28;;;;;;;14.98;13.48;;;;;;;;;;5056860;28;20798;-73
2021/07/15 10:04:55;;;;;;;14.30;12.60;;;;;;;;;;5055649;28;20751;-72
2021/07/15 10:07:25;;;;;;;15.25;13.43;;;;;;;;;;5054084;28;20064;-72
2021/07/15 10:10:11;;;;;;;14.63;12.32;;;;;;;;;;5060385;28;20064;-73
2021/07/15 10:12:38;;;;;;;14.02;12.30;;;;;;;;;;5051495;28;20060;-73
2021/07/15 10:15:08;;;;;;;12.52;11.27;;;;;;;;;;5030260;28;20032;-73
2021/07/15 10:17:41;;;;;;;13.47;12.07;;;;;;;;;;5044859;28;21221;-73
2021/07/15 10:20:14;;;;;;;11.27;10.18;;;;;;;;;;5056706;28;20060;-75
2021/07/15 10:22:41;;;;;;;11.90;10.70;;;;;;;;;;5054993;28;20060;-72
2021/07/15 10:25:09;;;;;;;12.88;11.35;;;;;;;;;;5038988;28;20045;-72
2021/07/15 10:27:36;;;;;;;12.70;11.02;;;;;;;;;;5052760;28;21650;-72
2021/07/15 10:30:03;;;;;;;12.30;11.00;;;;;;;;;;5055069;28;20078;-72
2021/07/15 10:32:32;;;;;;;12.18;10.98;;;;;;;;;;5054863;28;20060;-72
2021/07/15 10:34:59;;;;;;;12.30;11.15;;;;;;;;;;5048881;28;20068;-72
2021/07/15 10:37:26;;;;;;;12.77;11.02;;;;;;;;;;5047978;28;20071;-72
2021/07/15 10:39:52;;;;;;;13.00;11.70;;;;;;;;;;5053012;28;20037;-72
2021/07/15 10:42:18;;;;;;;12.15;10.93;;;;;;;;;;5050757;28;20069;-73
2021/07/15 10:44:46;;;;;;;12.45;11.18;;;;;;;;;;5048250;28;20057;-72
2021/07/15 10:47:13;;;;;;;13.95;11.63;;;;;;;;;;5048026;28;20056;-73
2021/07/15 10:49:41;;;;;;;12.50;11.20;;;;;;;;;;5050230;28;20460;-72
2021/07/15 10:52:09;;;;;;;12.70;11.48;;;;;;;;;;5030822;28;20129;-74
2021/07/15 10:54:36;;;;;;;12.43;11.23;;;;;;;;;;5035977;28;20060;-73
2021/07/15 10:57:03;;;;;;;13.27;11.98;;;;;;;;;;5050259;28;20727;-72
2021/07/15 10:59:30;;;;;;;13.40;11.75;;;;;;;;;;5049027;28;20127;-73
2021/07/15 11:02:01;;;;;;;13.18;11.98;;;;;;;;;;5048397;28;20125;-73
2021/07/15 11:04:30;;;;;;;13.05;11.68;;;;;;;;;;5051175;28;20076;-72
2021/07/15 11:07:02;;;;;;;13.13;11.85;;;;;;;;;;5046667;28;20068;-73
2021/07/15 11:09:38;;;;;;;13.65;12.30;;;;;;;;;;5046655;28;20059;-72
2021/07/15 11:12:24;;;;;;;13.23;12.00;;;;;;;;;;5049645;28;20033;-73
2021/07/15 11:14:59;;;;;;;13.55;12.15;;;;;;;;;;5048570;28;20396;-72
2021/07/15 11:17:26;;;;;;;14.07;12.68;;;;;;;;;;5049576;28;20090;-71
2021/07/15 11:20:04;;;;;;;15.02;13.52;;;;;;;;;;5055014;28;20082;-71
2021/07/15 11:22:50;;;;;;;14.35;12.98;;;;;;;;;;5022765;28;20056;-72
2021/07/15 11:25:17;;;;;;;13.77;12.48;;;;;;;;;;5027664;28;20513;-72
2021/07/15 11:27:44;;;;;;;14.60;11.60;;;;;;;;;;5051792;28;20064;-72
2021/07/15 11:30:13;;;;;;;12.70;11.35;;;;;;;;;;5054545;28;20446;-73
2021/07/15 11:32:40;;;;;;;14.18;12.73;;;;;;;;;;5052047;28;20569;-72
2021/07/15 11:35:41;;;;;;;14.13;12.65;;;;;;;;;;5048953;28;20049;-73
2021/07/15 11:38:09;;;;;;;14.05;12.70;;;;;;;;;;4996836;28;20061;-74
2021/07/15 11:40:36;;;;;;;14.52;13.18;;;;;;;;;;5039520;28;20110;-72
2021/07/15 11:43:16;;;;;;;14.00;12.60;;;;;;;;;;5067222;28;20117;-73
2021/07/15 11:46:01;;;;;;;14.20;12.90;;;;;;;;;;5052237;28;20119;-72
2021/07/15 11:48:42;;;;;;;12.65;11.45;;;;;;;;;;5058448;28;20072;-72
2021/07/15 11:51:28;;;;;;;14.35;12.80;;;;;;;;;;5053965;28;20121;-73
2021/07/15 11:54:14;;;;;;;14.18;12.70;;;;;;;;;;5056829;28;20125;-73
2021/07/15 11:56:41;;;;;;;14.30;12.25;;;;;;;;;;5052851;28;22119;-73
2021/07/15 11:59:08;;;;;;;13.75;12.35;;;;;;;;;;5054978;28;20701;-73
2021/07/15 12:01:34;;;;;;;14.15;12.85;;;;;;;;;;5057733;28;20129;-73
2021/07/15 12:04:04;;;;;;;14.55;13.15;;;;;;;;;;5057915;28;20117;-73
2021/07/15 12:06:31;;;;;;;13.45;12.15;;;;;;;;;;5055829;28;20056;-73
2021/07/15 12:09:06;;;;;;;15.18;13.57;;;;;;;;;;5050773;28;20041;-73
2021/07/15 12:11:33;;;;;;;15.50;13.82;;;;;;;;;;5049532;28;20048;-73
2021/07/15 12:14:01;;;;;;;15.27;13.48;;;;;;;;;;5053962;28;20029;-72
2021/07/15 12:16:28;;;;;;;16.48;14.77;;;;;;;;;;5055102;28;20064;-72
2021/07/15 12:18:54;;;;;;;15.68;14.15;;;;;;;;;;5045517;28;20064;-72
2021/07/15 12:21:21;;;;;;;14.10;12.70;;;;;;;;;;5054191;28;20077;-72
2021/07/15 12:23:51;;;;;;;16.05;14.35;;;;;;;;;;5057317;28;20069;-72
2021/07/15 12:26:19;;;;;;;14.18;12.65;;;;;;;;;;5058765;28;20107;-72
2021/07/15 12:28:46;;;;;;;15.35;13.75;;;;;;;;;;5060490;28;20770;-71
2021/07/15 12:31:15;;;;;;;15.98;14.32;;;;;;;;;;5062937;28;20063;-72
2021/07/15 12:33:45;;;;;;;16.85;14.10;;;;;;;;;;5052322;28;20040;-73
2021/07/15 12:36:22;;;;;;;14.80;13.32;;;;;;;;;;5060788;28;20044;-72
2021/07/15 12:38:49;;;;;;;12.85;11.45;;;;;;;;;;5054449;28;20534;-72
2021/07/15 12:41:16;;;;;;;15.82;14.23;;;;;;;;;;5056873;28;20060;-73
2021/07/15 12:43:57;;;;;;;14.48;12.98;;;;;;;;;;5057144;28;20063;-73
2021/07/15 12:46:36;;;;;;;16.13;14.40;;;;;;;;;;5036329;28;20045;-72
2021/07/15 12:49:13;;;;;;;16.50;13.57;;;;;;;;;;5038343;28;20037;-72
2021/07/15 12:51:47;;;;;;;14.60;13.20;;;;;;;;;;5049167;28;20123;-72
2021/07/15 12:54:19;;;;;;;15.93;14.40;;;;;;;;;;5050681;28;20060;-73
2021/07/15 12:56:46;;;;;;;16.92;15.13;;;;;;;;;;5051078;28;20588;-72
2021/07/15 12:59:14;;;;;;;13.73;12.40;;;;;;;;;;5052952;28;20076;-72
2021/07/15 13:01:41;;;;;;;14.70;13.30;;;;;;;;;;5051932;28;20068;-72
2021/07/15 13:04:09;;;;;;;14.75;13.25;;;;;;;;;;5053528;28;20090;-73
2021/07/15 13:06:37;;;;;;;13.75;12.35;;;;;;;;;;5033062;28;20119;-72
2021/07/15 13:09:14;;;;;;;14.77;13.27;;;;;;;;;;5053735;28;20118;-72
2021/07/15 13:14:43;;;;;;;16.60;14.70;;;;;;;;;;5046877;28;20029;-72
2021/07/15 13:17:10;;;;;;;15.80;14.20;;;;;;;;;;5050826;28;20496;-72
2021/07/15 13:19:38;;;;;;;15.95;14.30;;;;;;;;;;5049374;28;21324;-72
2021/07/15 13:22:12;;;;;;;17.38;15.43;;;;;;;;;;5044886;28;20057;-72
2021/07/15 13:24:39;;;;;;;16.02;14.38;;;;;;;;;;5056676;28;22247;-73
2021/07/15 13:27:16;;;;;;;17.48;15.77;;;;;;;;;;5040878;28;20078;-72
2021/07/15 13:29:44;;;;;;;14.98;13.48;;;;;;;;;;5050570;28;20052;-72
2021/07/15 13:32:16;;;;;;;20.40;18.40;;;;;;;;;;5055692;28;20095;-73
2021/07/15 13:34:55;;;;;;;21.77;19.38;;;;;;;;;;5048259;28;20490;-72
2021/07/15 13:37:29;;;;;;;22.75;20.42;;;;;;;;;;5052887;28;20111;-73
2021/07/15 13:39:56;;;;;;;21.05;18.95;;;;;;;;;;5055958;28;20064;-72
2021/07/15 13:42:30;;;;;;;21.00;18.90;;;;;;;;;;5055337;28;20060;-71
2021/07/15 13:44:58;;;;;;;22.23;19.88;;;;;;;;;;5061401;28;20060;-71
2021/07/15 13:47:32;;;;;;;19.33;17.33;;;;;;;;;;5054510;28;20496;-72
2021/07/15 13:50:04;;;;;;;21.17;18.55;;;;;;;;;;5053206;28;20071;-71
2021/07/15 13:52:31;;;;;;;19.88;17.95;;;;;;;;;;5059311;28;20569;-72
2021/07/15 13:55:01;;;;;;;20.60;18.45;;;;;;;;;;5053476;28;20061;-72
2021/07/15 13:57:28;;;;;;;17.45;15.65;;;;;;;;;;5036950;28;20061;-72
2021/07/15 13:59:54;;;;;;;18.95;17.05;;;;;;;;;;5052712;28;20408;-75
2021/07/15 14:02:21;;;;;;;18.88;16.80;;;;;;;;;;5053422;28;20056;-73
2021/07/15 14:04:48;;;;;;;18.50;16.67;;;;;;;;;;5055625;28;20065;-74
2021/07/15 14:07:16;;;;;;;18.63;15.63;;;;;;;;;;5057553;28;20090;-74
2021/07/15 14:09:45;;;;;;;18.75;14.52;;;;;;;;;;5060924;28;20205;-73
2021/07/15 14:12:12;;;;;;;17.20;15.35;;;;;;;;;;5057391;28;20562;-74
2021/07/15 14:14:47;;;;;;;17.35;15.55;;;;;;;;;;5050495;28;20103;-74
2021/07/15 14:17:24;;;;;;;18.08;16.38;;;;;;;;;;5052099;28;20056;-74
2021/07/15 14:19:54;;;;;;;17.98;16.08;;;;;;;;;;5060865;28;20071;-74
2021/07/15 14:22:21;;;;;;;18.02;16.15;;;;;;;;;;5048255;28;20123;-74
2021/07/15 14:24:51;;;;;;;19.25;16.98;;;;;;;;;;5050498;28;20072;-74
2021/07/15 14:27:19;;;;;;;18.25;16.45;;;;;;;;;;5056630;28;20075;-74
2021/07/15 14:29:46;;;;;;;17.98;16.17;;;;;;;;;;5056137;28;20063;-74
2021/07/15 14:32:13;;;;;;;18.95;16.77;;;;;;;;;;5054196;28;20057;-74